Tempos de volta de KART DRIVERS 13° ETAPA WHITE DRIVERS / PROVA 7 - 21:00
KARTODROMO INTERNACIONAL GRANJA VIANA a funcionar KGV RACE TRACKS CIRCUITO - 106
Tempos de volta de KART DRIVERS - 13° ETAPA WHITE DRIVERS / PROVA 7 - 21:00


Hora do dia Volta Volta do Líder Volta Tm Velocidade
036 - ALGUSTO SABBATO - RENTAL
21:17:18.866 1 1 55.074 46,083
21:18:12.871 2 2 54.005 46,996
21:19:06.993 3 3 54.122 46,894
21:20:01.756 4 4 54.763 46,345
21:20:55.463 5 5 53.707 47,256
21:21:48.982 6 6 53.519 47,422
21:22:42.731 7 7 53.749 47,219
21:23:36.424 8 8 53.693 47,269
21:24:29.785 9 9 53.361 47,563
21:25:23.046 10 10 53.261 47,652
21:26:15.964 11 11 52.918 47,961
21:27:08.302 12 12 52.338 48,492
21:28:01.051 13 13 52.749 48,115
21:28:53.695 14 14 52.644 48,211
21:29:46.432 15 15 52.737 48,126
21:30:38.451 16 16 52.019 48,790
21:31:31.583 17 17 53.132 47,768
21:32:24.512 18 18 52.929 47,951
21:33:17.186 19 19 52.674 48,183
21:34:09.630 20 20 52.444 48,394
037 - FERNANDO THOMAS - RENTAL
21:17:23.248 1 1 56.982 44,540
21:18:21.052 2 2 57.804 43,907
21:19:17.658 3 3 56.606 44,836
21:20:13.060 4 4 55.402 45,811
21:21:07.455 5 5 54.395 46,659
21:22:02.572 6 6 55.117 46,047
21:22:56.322 7 7 53.750 47,219
21:23:50.689 8 8 54.367 46,683
21:24:43.709 9 9 53.020 47,869
21:25:37.855 10 10 54.146 46,873
21:26:30.670 11 11 52.815 48,055
21:27:24.261 12 12 53.591 47,359
21:28:17.557 13 13 53.296 47,621
21:29:11.242 14 14 53.685 47,276
21:30:04.159 15 15 52.917 47,962
21:30:56.984 16 16 52.825 48,045
21:31:50.118 17 17 53.134 47,766
21:32:42.879 18 18 52.761 48,104
21:33:35.255 19 19 52.376 48,457
21:34:27.300 20 20 52.045 48,765
030 - TOMAZ BRUNO - RENTAL
21:17:27.624 1 1 56.263 45,110
21:18:22.945 2 2 55.321 45,878
21:19:18.953 3 3 56.008 45,315
21:20:14.097 4 4 55.144 46,025
21:21:07.869 5 5 53.772 47,199
21:22:02.884 6 6 55.015 46,133
21:22:56.843 7 7 53.959 47,036
21:23:51.407 8 8 54.564 46,514
21:24:44.705 9 9 53.298 47,619
21:25:39.006 10 10 54.301 46,739
21:26:33.326 11 11 54.320 46,723
21:27:28.121 12 12 54.795 46,318
21:28:22.760 13 13 54.639 46,450
21:29:16.551 14 14 53.791 47,183
21:30:10.040 15 15 53.489 47,449
21:31:04.309 16 16 54.269 46,767
21:31:57.409 17 17 53.100 47,797
21:32:51.378 18 18 53.969 47,027
21:33:44.543 19 19 53.165 47,738
21:34:38.063 20 20 53.520 47,422
026 - DANIEL SICCHIEROLLI - RENTAL
21:17:24.805 1 1 54.840 46,280
21:18:23.830 2 2 59.025 42,999
21:19:18.130 3 3 54.300 46,740
21:20:12.459 4 4 54.329 46,715
21:21:18.195 5 5 1:05.736 38,609
21:22:12.809 6 6 54.614 46,472
21:23:06.900 7 7 54.091 46,921
21:24:00.425 8 8 53.525 47,417
21:24:53.575 9 9 53.150 47,752
21:25:47.275 10 10 53.700 47,263
21:26:40.601 11 11 53.326 47,594
21:27:33.991 12 12 53.390 47,537
21:28:27.980 13 13 53.989 47,010
21:29:21.156 14 14 53.176 47,728
21:30:14.364 15 15 53.208 47,700
21:31:08.224 16 16 53.860 47,122
21:32:01.978 17 17 53.754 47,215
21:32:55.337 18 18 53.359 47,565
21:33:48.453 19 19 53.116 47,782
21:34:41.838 20 20 53.385 47,541
020 - CLAUDIO FERNANDES - RENTAL
21:17:35.003 1 1 58.197 43,610
21:18:30.740 2 2 55.737 45,535
21:19:25.868 3 3 55.128 46,038
21:20:20.755 4 4 54.887 46,240
21:21:15.801 5 5 55.046 46,107
21:22:11.315 6 6 55.514 45,718
21:23:05.344 7 7 54.029 46,975
21:23:58.840 8 8 53.496 47,443
21:24:52.407 9 9 53.567 47,380
21:25:46.526 10 10 54.119 46,897
21:26:40.293 11 11 53.767 47,204
21:27:33.479 12 12 53.186 47,719
21:28:27.075 13 13 53.596 47,354
21:29:21.070 14 14 53.995 47,004
21:30:20.289 15 15 59.219 42,858
21:31:13.359 16 16 53.070 47,824
21:32:06.845 17 17 53.486 47,452
21:32:59.659 18 18 52.814 48,055
21:33:53.922 19 19 54.263 46,772
21:34:46.872 20 20 52.950 47,932
001 - EVANIL JUNIOR - RENTAL
21:17:17.586 1 1 56.526 44,900
21:18:14.220 2 2 56.634 44,814
21:19:09.687 3 3 55.467 45,757
21:20:05.730 4 4 56.043 45,287
21:21:01.317 5 5 55.587 45,658
21:21:57.360 6 6 56.043 45,287
21:22:52.595 7 7 55.235 45,949
21:23:48.154 8 8 55.559 45,681
21:24:43.537 9 9 55.383 45,826
21:25:38.465 10 10 54.928 46,206
21:26:33.223 11 11 54.758 46,349
21:27:28.087 12 12 54.864 46,260
21:28:23.465 13 13 55.378 45,830
21:29:18.326 14 14 54.861 46,262
21:30:13.103 15 15 54.777 46,333
21:31:08.431 16 16 55.328 45,872
21:32:03.397 17 17 54.966 46,174
21:32:58.232 18 18 54.835 46,284
21:33:52.540 19 19 54.308 46,733
21:34:47.427 20 20 54.887 46,240
025 - LUCIANO YOSHIKAWA - RENTAL
21:17:34.485 1 1 1:04.633 39,268
21:18:31.001 2 2 56.516 44,908
21:19:26.714 3 3 55.713 45,555
21:20:22.002 4 4 55.288 45,905
21:21:17.407 5 5 55.405 45,808
21:22:12.793 6 6 55.386 45,824
21:23:08.060 7 7 55.267 45,923
21:24:02.244 8 8 54.184 46,840
21:24:56.838 9 9 54.594 46,489
21:25:51.103 10 10 54.265 46,770
21:26:45.450 11 11 54.347 46,700
21:27:39.015 12 12 53.565 47,382
21:28:32.954 13 13 53.939 47,053
21:29:26.289 14 14 53.335 47,586
21:30:20.867 15 15 54.578 46,502
21:31:15.113 16 16 54.246 46,787
21:32:09.613 17 17 54.500 46,569
21:33:03.009 18 18 53.396 47,532
21:33:56.249 19 19 53.240 47,671
21:34:49.863 20 20 53.614 47,338
011 - LAMARK FERREIRA - RENTAL
21:17:22.507 1 1 57.302 44,292
21:18:20.914 2 2 58.407 43,454
21:19:17.234 3 3 56.320 45,064
21:20:21.225 4 4 1:03.991 39,662
21:21:16.335 5 5 55.110 46,053
21:22:12.363 6 6 56.028 45,299
21:23:06.769 7 7 54.406 46,649
21:24:00.420 8 8 53.651 47,306
21:24:54.852 9 9 54.432 46,627
21:25:48.971 10 10 54.119 46,897
21:26:51.728 11 11 1:02.757 40,442
21:27:45.675 12 12 53.947 47,046
21:28:39.796 13 13 54.121 46,895
21:29:33.669 14 14 53.873 47,111
21:30:27.762 15 15 54.093 46,919
21:31:22.413 16 16 54.651 46,440
21:32:16.489 17 17 54.076 46,934
21:33:10.167 18 18 53.678 47,282
21:34:03.718 19 19 53.551 47,394
21:34:57.621 20 20 53.903 47,085
008 - LEONARDO MOREIRA - RENTAL
21:17:22.618 1 1 56.846 44,647
21:18:19.798 2 2 57.180 44,386
21:19:18.564 3 3 58.766 43,188
21:20:13.703 4 4 55.139 46,029
21:21:08.865 5 5 55.162 46,010
21:22:03.118 6 6 54.253 46,781
21:22:57.902 7 7 54.784 46,327
21:23:51.608 8 8 53.706 47,257
21:24:45.992 9 9 54.384 46,668
21:25:59.239 10 10 1:13.247 34,650
21:26:52.204 11 11 52.965 47,918
21:27:45.765 12 12 53.561 47,385
21:28:38.813 13 13 53.048 47,843
21:29:32.706 14 14 53.893 47,093
21:30:26.038 15 15 53.332 47,589
21:31:18.668 16 16 52.630 48,223
21:32:12.507 17 17 53.839 47,141
21:33:05.669 18 18 53.162 47,741
21:34:05.994 19 19 1:00.325 42,072
21:34:59.978 20 20 53.984 47,014
004 - FERNANDO BARDUCHI - RENTAL
21:17:31.961 1 1 1:06.589 38,114
21:18:28.228 2 2 56.267 45,106
21:19:24.841 3 3 56.613 44,831
21:20:20.576 4 4 55.735 45,537
21:21:15.953 5 5 55.377 45,831
21:22:12.099 6 6 56.146 45,204
21:23:06.589 7 7 54.490 46,577
21:24:01.686 8 8 55.097 46,064
21:24:56.469 9 9 54.783 46,328
21:25:52.276 10 10 55.807 45,478
21:26:47.760 11 11 55.484 45,743
21:27:47.453 12 12 59.693 42,518
21:28:42.276 13 13 54.823 46,294
21:29:36.847 14 14 54.571 46,508
21:30:31.020 15 15 54.173 46,850
21:31:25.236 16 16 54.216 46,813
21:32:19.352 17 17 54.116 46,899
21:33:13.081 18 18 53.729 47,237
21:34:07.829 19 19 54.748 46,358
21:35:02.837 20 20 55.008 46,139
027 - JOSUEL ROSALINO - RENTAL
21:17:21.784 1 1 58.484 43,396
21:18:20.154 2 2 58.370 43,481
21:19:15.841 3 3 55.687 45,576
21:20:12.209 4 4 56.368 45,026
21:21:14.599 5 5 1:02.390 40,680
21:22:10.008 6 6 55.409 45,805
21:23:04.960 7 7 54.952 46,186
21:23:59.418 8 8 54.458 46,605
21:24:54.968 9 9 55.550 45,689
21:25:49.129 10 10 54.161 46,860
21:26:54.199 11 11 1:05.070 39,004
21:27:48.859 12 12 54.660 46,432
21:28:43.101 13 13 54.242 46,790
21:29:36.454 14 14 53.353 47,570
21:30:29.898 15 15 53.444 47,489
21:31:23.852 16 16 53.954 47,040
21:32:18.803 17 17 54.951 46,187
21:33:12.252 18 18 53.449 47,485
21:34:05.875 19 19 53.623 47,330
21:35:10.845 20 20 1:04.970 39,064
032 - JOSIAS GOMES - RENTAL
21:17:25.290 1 1 59.232 42,848
21:18:30.337 2 2 1:05.047 39,018
21:19:26.960 3 3 56.623 44,823
21:20:24.056 4 4 57.096 44,451
21:21:19.961 5 5 55.905 45,398
21:22:15.553 6 6 55.592 45,654
21:23:10.548 7 7 54.995 46,150
21:24:04.853 8 8 54.305 46,736
21:24:59.216 9 9 54.363 46,686
21:25:53.304 10 10 54.088 46,924
21:26:48.473 11 11 55.169 46,004
21:27:43.160 12 12 54.687 46,410
21:28:38.202 13 13 55.042 46,110
21:29:33.514 14 14 55.312 45,885
21:30:27.397 15 15 53.883 47,102
21:31:21.754 16 16 54.357 46,691
21:32:16.923 17 17 55.169 46,004
21:33:21.910 18 19 1:04.987 39,054
21:34:17.330 19 20 55.420 45,796
017 - MARCIO COQUE - RENTAL
21:17:41.667 1 1 1:05.416 38,798
21:18:37.521 2 2 55.854 45,440
21:19:33.787 3 3 56.266 45,107
21:20:29.434 4 4 55.647 45,609
21:21:25.592 5 5 56.158 45,194
21:22:20.078 6 6 54.486 46,581
21:23:15.415 7 7 55.337 45,864
21:24:11.035 8 8 55.620 45,631
21:25:07.205 9 9 56.170 45,184
21:26:01.698 10 10 54.493 46,575
21:26:55.169 11 11 53.471 47,465
21:27:53.159 12 12 57.990 43,766
21:28:47.118 13 13 53.959 47,036
21:29:40.885 14 14 53.767 47,204
21:30:34.804 15 15 53.919 47,071
21:31:34.231 16 17 59.427 42,708
21:32:29.205 17 18 54.974 46,167
21:33:23.228 18 19 54.023 46,980
21:34:18.921 19 20 55.693 45,571
028 - CAIO SCHUTZ - RENTAL
21:17:44.373 1 1 1:03.013 40,277
21:18:40.149 2 2 55.776 45,503
21:19:36.494 3 3 56.345 45,044
21:20:31.630 4 4 55.136 46,032
21:21:26.745 5 5 55.115 46,049
21:22:21.462 6 6 54.717 46,384
21:23:15.644 7 7 54.182 46,842
21:24:17.898 8 8 1:02.254 40,768
21:25:11.734 9 9 53.836 47,143
21:26:05.684 10 10 53.950 47,044
21:26:59.879 11 11 54.195 46,831
21:27:53.807 12 12 53.928 47,063
21:28:47.346 13 13 53.539 47,405
21:29:40.301 14 14 52.955 47,927
21:30:33.992 15 15 53.691 47,270
21:31:38.728 16 17 1:04.736 39,205
21:32:33.042 17 18 54.314 46,728
21:33:26.456 18 19 53.414 47,516
21:34:20.574 19 20 54.118 46,898
045 - PLINIO CAMARGO - RENTAL
21:17:38.884 1 1 1:02.468 40,629
21:18:33.994 2 2 55.110 46,053
21:19:28.985 3 3 54.991 46,153
21:20:23.865 4 4 54.880 46,246
21:21:18.800 5 5 54.935 46,200
21:22:13.488 6 6 54.688 46,409
21:23:07.466 7 7 53.978 47,019
21:24:01.955 8 8 54.489 46,578
21:24:56.338 9 9 54.383 46,669
21:25:50.290 10 10 53.952 47,042
21:26:44.006 11 11 53.716 47,248
21:27:37.448 12 12 53.442 47,491
21:28:31.141 13 13 53.693 47,269
21:29:24.858 14 14 53.717 47,248
21:30:26.565 15 15 1:01.707 41,130
21:31:19.424 16 16 52.859 48,015
21:32:13.573 17 17 54.149 46,871
21:33:41.409 18 19 1:27.836 28,895
21:34:33.940 19 20 52.531 48,314
007 - VALDEMIR SOUZA - RENTAL
21:17:22.029 1 1 57.591 44,069
21:18:18.680 2 2 56.651 44,801
21:19:13.939 3 3 55.259 45,929
21:20:16.746 4 4 1:02.807 40,410
21:21:12.015 5 5 55.269 45,921
21:22:07.147 6 6 55.132 46,035
21:23:02.589 7 7 55.442 45,778
21:23:57.890 8 8 55.301 45,894
21:24:52.013 9 9 54.123 46,893
21:25:46.357 10 10 54.344 46,702
21:26:41.119 11 11 54.762 46,346
21:27:35.127 12 12 54.008 46,993
21:28:29.144 13 13 54.017 46,985
21:29:24.728 14 14 55.584 45,661
21:30:19.020 15 15 54.292 46,747
21:31:12.784 16 16 53.764 47,206
21:32:49.825 17 18 1:37.041 26,154
21:33:43.767 18 19 53.942 47,051
21:34:38.708 19 20 54.941 46,195
010 - GIOVANNI GUIMARAES - RENTAL
21:17:21.346 1 1 58.592 43,316
21:18:19.444 2 2 58.098 43,685
21:19:17.280 3 3 57.836 43,883
21:20:15.510 4 4 58.230 43,586
21:21:11.519 5 5 56.009 45,314
21:22:16.540 6 6 1:05.021 39,034
21:23:13.626 7 7 57.086 44,459
21:24:10.664 8 8 57.038 44,497
21:25:07.994 9 9 57.330 44,270
21:26:03.736 10 10 55.742 45,531
21:26:59.935 11 11 56.199 45,161
21:27:55.674 12 12 55.739 45,534
21:29:03.568 13 14 1:07.894 37,382
21:29:58.231 14 15 54.663 46,430
21:30:57.357 15 16 59.126 42,925
21:31:52.848 16 17 55.491 45,737
21:32:48.367 17 18 55.519 45,714
21:33:45.839 18 19 57.472 44,161
21:34:40.489 19 20 54.650 46,441
002 - RENATO RIBEIRO - RENTAL
21:17:29.766 1 1 1:00.954 41,638
21:18:26.599 2 2 56.833 44,657
21:19:25.650 3 3 59.051 42,980
21:20:25.026 4 4 59.376 42,745
21:21:21.482 5 5 56.456 44,955
21:22:17.582 6 6 56.100 45,241
21:23:13.880 7 7 56.298 45,082
21:24:16.354 8 8 1:02.474 40,625
21:25:12.399 9 9 56.045 45,285
21:26:14.257 10 10 1:01.858 41,029
21:27:10.150 11 12 55.893 45,408
21:28:05.475 12 13 55.325 45,874
21:29:08.119 13 14 1:02.644 40,515
21:30:05.237 14 15 57.118 44,434
21:31:00.757 15 16 55.520 45,713
21:31:56.390 16 17 55.633 45,620
21:32:52.211 17 18 55.821 45,467
21:33:47.544 18 19 55.333 45,868
21:34:43.398 19 20 55.854 45,440
034 - GUSTAVO GUIMARAES - RENTAL
21:17:28.445 1 1 1:00.931 41,654
21:18:27.728 2 2 59.283 42,812
21:19:38.562 3 3 1:10.834 35,830
21:20:40.280 4 4 1:01.718 41,123
21:21:35.512 5 5 55.232 45,952
21:22:33.442 6 6 57.930 43,811
21:23:30.331 7 7 56.889 44,613
21:24:26.428 8 8 56.097 45,243
21:25:22.822 9 9 56.394 45,005
21:26:18.997 10 11 56.175 45,180
21:27:14.431 11 12 55.434 45,784
21:28:09.840 12 13 55.409 45,805
21:29:05.726 13 14 55.886 45,414
21:29:59.680 14 15 53.954 47,040
21:30:54.350 15 16 54.670 46,424
21:31:50.202 16 17 55.852 45,442
21:32:45.442 17 18 55.240 45,945
21:33:52.947 18 19 1:07.505 37,597
21:34:48.211 19 20 55.264 45,925
031 - PAULO COLOMBINI - RENTAL
21:17:22.272 1 1 58.759 43,193
21:18:55.257 2 2 1:32.985 27,295
21:20:02.275 3 4 1:07.018 37,870
21:20:59.112 4 5 56.837 44,654
21:21:54.495 5 6 55.383 45,826
21:22:51.131 6 7 56.636 44,812
21:23:47.385 7 8 56.254 45,117
21:24:43.883 8 9 56.498 44,922
21:25:41.083 9 10 57.200 44,371
21:26:36.579 10 11 55.496 45,733
21:27:31.402 11 12 54.823 46,294
21:28:28.316 12 13 56.914 44,594
21:29:25.402 13 14 57.086 44,459
21:30:22.746 14 15 57.344 44,259
21:31:18.014 15 16 55.268 45,922
21:32:14.540 16 17 56.526 44,900
21:33:10.407 17 18 55.867 45,429
21:34:05.519 18 19 55.112 46,052
21:35:04.006 19 20 58.487 43,394
005 - RICARDO CHAVES - RENTAL
21:17:28.984 1 1 1:02.118 40,858
21:18:37.120 2 2 1:08.136 37,249
21:19:36.688 3 3 59.568 42,607
21:20:36.536 4 4 59.848 42,407
21:21:35.192 5 5 58.656 43,269
21:22:35.926 6 6 1:00.734 41,789
21:23:33.304 7 7 57.378 44,233
21:24:32.041 8 9 58.737 43,210
21:25:29.503 9 10 57.462 44,168
21:26:27.897 10 11 58.394 43,463
21:27:26.254 11 12 58.357 43,491
21:28:25.678 12 13 59.424 42,710
21:29:24.851 13 14 59.173 42,891
21:30:24.660 14 15 59.809 42,435
21:31:23.308 15 16 58.648 43,275
21:32:22.655 16 17 59.347 42,765
21:33:21.103 17 19 58.448 43,423
21:34:20.672 18 20 59.569 42,606
038 - MARCELO HORA - RENTAL
21:17:22.619 1 1 57.699 43,987
21:18:20.635 2 2 58.016 43,747
21:19:44.232 3 3 1:23.597 30,360
21:20:41.164 4 4 56.932 44,579
21:21:36.582 5 5 55.418 45,797
21:22:33.072 6 6 56.490 44,928
21:23:30.033 7 7 56.961 44,557
21:24:26.690 8 8 56.657 44,796
21:25:22.296 9 9 55.606 45,643
21:26:18.088 10 11 55.792 45,490
21:27:14.230 11 12 56.142 45,207
21:28:10.497 12 13 56.267 45,106
21:29:05.312 13 14 54.815 46,301
21:30:00.940 14 15 55.628 45,625
21:31:38.089 15 17 1:37.149 26,125
21:32:34.974 16 18 56.885 44,616
21:33:30.253 17 19 55.279 45,913
21:34:24.996 18 20 54.743 46,362
009 - JULIO TORRES - RENTAL
21:17:48.438 1 1 1:00.499 41,951
21:18:50.197 2 2 1:01.759 41,095
21:19:48.255 3 3 58.058 43,715
21:20:45.769 4 4 57.514 44,128
21:21:42.187 5 5 56.418 44,986
21:22:39.137 6 6 56.950 44,565
21:23:57.623 7 8 1:18.486 32,337
21:24:55.542 8 9 57.919 43,820
21:25:53.252 9 10 57.710 43,979
21:26:49.983 10 11 56.731 44,737
21:27:47.128 11 12 57.145 44,413
21:28:43.931 12 13 56.803 44,681
21:29:40.095 13 14 56.164 45,189
21:30:37.359 14 15 57.264 44,321
21:31:34.993 15 17 57.634 44,037
21:32:32.872 16 18 57.879 43,850
21:33:30.748 17 19 57.876 43,852
21:34:26.269 18 20 55.521 45,712
029 - CARLOS SALES - RENTAL
21:17:45.079 1 1 1:13.118 34,711
21:19:43.243 2 3 1:58.164 21,479
21:21:44.069 3 5 2:00.826 21,005
21:22:41.135 4 6 57.066 44,475
21:23:38.226 5 8 57.091 44,455
21:24:35.496 6 9 57.270 44,316
21:25:31.737 7 10 56.241 45,127
21:26:27.313 8 11 55.576 45,667
21:27:23.530 9 12 56.217 45,146
21:28:19.492 10 13 55.962 45,352
21:29:14.070 11 14 54.578 46,502
21:30:10.710 12 15 56.640 44,809
21:31:05.608 13 16 54.898 46,231
21:32:02.019 14 17 56.411 44,991
21:33:00.244 15 18 58.225 43,590
21:33:55.894 16 19 55.650 45,606
21:34:52.603 17 20 56.709 44,755
044 - JORGE MARCELINO - RENTAL
21:17:25.861 1 1 59.434 42,703
21:18:22.776 2 2 56.915 44,593
21:19:19.541 3 3 56.765 44,711
21:20:15.832 4 4 56.291 45,087
21:21:21.902 5 5 1:06.070 38,414
Gerada em 13/08/2019 21:35